Terminal Aerodrome Forecast
Issued by NWS

Home | Current Version | Previous Version | Text Only | Print | Product List | Glossary On
Versions: 1 2 3 4 5 6 7 8 9 10 11 12 13 14 15 16 17 18
026
FTUS43 KAPX 240520
TAFMBL
TAF
KMBL 240520Z 2406/2506 19006KT P6SM FEW250 WS015/20028KT
     FM241100 16010KT P6SM VCSH BKN022 OVC150
     FM241300 18011G19KT P6SM -SHRA BKN025 OVC080
     FM242100 21009KT P6SM BKN050
     FM250200 23005KT P6SM BKN028=

USA.gov is the U.S. government's official web portal to all federal, state and local government web resources and services.